This demonstration page uses our WeatherBlox Daily Observations layout. Learn more.

Left ArrowRight Arrow

Hourly Observations for February 10, 2021

Temp ( °F °C ) Dew Point ( °F °C ) Humidity (%) Winds ( mph kmh ) Pressure ( in mb ) Visibility ( mi km ) Precip ( " mm )
12:54 am 00:54 Cloudy 7 -13.9 -2 -18.9 66 66 N 8 13 30.48 1032 10 16.0934 0 0
1:54 am 01:54 Cloudy 7 -13.9 -2 -18.9 66 66 NE 5 7 30.46 1032 10 16.0934 0 0
2:54 am 02:54 Cloudy 7 -13.9 -1 -18.3 70 70 N 8 13 30.45 1031 10 16.0934 0 0
3:54 am 03:54 Cloudy 7 -13.9 -2 -18.9 66 66 N 8 13 30.45 1031 10 16.0934 0 0
4:54 am 04:54 Cloudy 7 -13.9 -1 -18.3 70 70 N 8 13 30.47 1032 10 16.0934 0 0
5:54 am 05:54 Cloudy 8 -13.3 0 -17.8 69 69 N 8 13 30.47 1032 10 16.0934 0 0
6:54 am 06:54 Cloudy 8 -13.3 0 -17.8 69 69 NNE 10 17 30.48 1032 10 16.0934 0 0
7:54 am 07:54 Partly Cloudy 7 -13.9 -1 -18.3 70 70 NNE 9 15 30.5 1033 10 16.0934 0 0
8:54 am 08:54 Partly Cloudy 8 -13.3 0 -17.8 69 69 NNE 10 17 30.51 1033 10 16.0934 0 0
9:54 am 09:54 Mostly Cloudy 9 -12.8 0 -17.8 66 66 NNE 13 20 30.5 1033 9 14.48406 0 0
10:54 am 10:54 Mostly Sunny 11 -11.7 0 -17.8 61 61 NNE 10 17 30.52 1034 10 16.0934 0 0
11:54 am 11:54 Cloudy 11 -11.7 -2 -18.9 55 55 NNE 13 20 30.5 1033 10 16.0934 0 0
12:54 pm 12:54 Mostly Sunny 11 -11.7 -2 -18.9 55 55 NNE 10 17 30.48 1032 10 16.0934 0 0
1:54 pm 13:54 Mostly Cloudy 12 -11.1 -2 -18.9 53 53 NE 9 15 30.48 1032 10 16.0934 0 0
2:54 pm 14:54 Partly Cloudy 12 -11.1 -3 -19.4 51 51 NNE 12 19 30.48 1032 10 16.0934 0 0
3:54 pm 15:54 Sunny 13 -10.6 -2 -18.9 51 51 NNE 14 22 30.48 1032 10 16.0934 0 0
5:54 pm 17:54 Mostly Sunny 10 -12.2 -3 -19.4 55 55 N 13 20 30.5 1033 10 16.0934 0 0
6:54 pm 18:54 Clear 7 -13.9 -4 -20 60 60 N 9 15 30.52 1033 10 16.0934 0 0
7:54 pm 19:54 Clear 4 -15.6 -6 -21.1 63 63 N 8 13 30.53 1034 10 16.0934 0 0
8:54 pm 20:54 Clear 6 -14.4 -4 -20 63 63 NNW 7 11 30.53 1034 10 16.0934 0 0
9:54 pm 21:54 Clear 0 -17.8 -7 -21.7 72 72 N 8 13 30.54 1034 10 16.0934 0 0
10:54 pm 22:54 Mostly Clear -1 -18.3 -8 -22.2 72 72 N 8 13 30.55 1034 10 16.0934 0 0
11:54 pm 23:54 Clear 3 -16.1 -4 -20 72 72 N 7 11 30.55 1035 10 16.0934 0 0

Powered by AerisWeather